This is the latest recevied weather packets stored in our database for station/object K4PAD. If no packets are shown the sender has not sent any weather packets the latest 1 day(s).
| Time | Temp. | Humidity | Pressure | Rain* | Wind** | Luminosity | Snow |
|---|---|---|---|---|---|---|---|
| 1778075794 | 25° C | 68% | 1018.4 hPa | 0 mm | - | 588 W/m² | - |
| 1778075490 | 25° C | 68% | 1018.6 hPa | 0 mm | - | 533 W/m² | - |
| 1778075187 | 25° C | 69% | 1018.6 hPa | 0 mm | - | 502 W/m² | - |
| 1778074580 | 24.44° C | 70% | 1018.7 hPa | 0 mm | - | 451 W/m² | - |
| 1778074277 | 24.44° C | 71% | 1018.4 hPa | 0 mm | - | 451 W/m² | - |
| 1778072157 | 22.22° C | 74% | 1018.5 hPa | 0 mm | - | 329 W/m² | - |
| 1778070947 | 21.11° C | 78% | 1018.1 hPa | 0 mm | - | 156 W/m² | - |
| 1778070646 | 20.56° C | 78% | 1018 hPa | 0 mm | - | 123 W/m² | - |
| 1778068225 | 17.78° C | 91% | 1017.8 hPa | 0 mm | - | 71 W/m² | - |
| 1778066711 | 16.11° C | 92% | 1017.6 hPa | 0 mm | - | 51 W/m² | - |
| 1778066409 | 16.11° C | 92% | 1017.9 hPa | 0 mm | - | 42 W/m² | - |
| 1778064893 | 15.56° C | 92% | 1017.5 hPa | 0 mm | - | 10 W/m² | - |
| 1778064591 | 15.56° C | 92% | 1017.4 hPa | 0 mm | - | 7 W/m² | - |
| 1778064289 | 15.56° C | 92% | 1017.4 hPa | 0 mm | - | 4 W/m² | - |
| 1778063684 | 15.56° C | 92% | 1017.2 hPa | 0 mm | - | 1 W/m² | - |
| 1778063381 | 15.56° C | 91% | 1017.4 hPa | 0 mm | - | 0 W/m² | - |
| 1778063079 | 15.56° C | 91% | 1017.1 hPa | 0 mm | - | 0 W/m² | - |
| 1778062170 | 16.11° C | 90% | 1017 hPa | 0 mm | - | 0 W/m² | - |
| 1778061868 | 16.11° C | 90% | 1017.4 hPa | 0 mm | - | 0 W/m² | - |
| 1778061264 | 16.11° C | 90% | 1017.3 hPa | 0 mm | - | 0 W/m² | - |
| 1778060960 | 16.11° C | 90% | 1017.4 hPa | 0 mm | - | 0 W/m² | - |
| 1778060659 | 16.11° C | 90% | 1017.3 hPa | 0 mm | - | 0 W/m² | - |
| 1778060356 | 16.11° C | 90% | 1017.4 hPa | 0 mm | - | 0 W/m² | - |
| 1778059145 | 16.11° C | 89% | 1017.1 hPa | 0 mm | - | 0 W/m² | - |
| 1778058238 | 16.67° C | 87% | 1016.6 hPa | 0 mm | - | 0 W/m² | - |
* Rain latest hour (hover to see other rain measurements)
** Current wind speed in m/s (hover to see current wind gust speed)